createdAt,value
2023-02-06T00:00:09.425Z,86.62
2023-02-06T00:01:16.921Z,86.21
2023-02-06T00:02:09.408Z,86.21
2023-02-06T00:03:09.340Z,86.00
2023-02-06T00:04:09.492Z,86.10
2023-02-06T00:05:09.347Z,86.17
2023-02-06T00:06:09.336Z,85.86
2023-02-06T00:07:09.356Z,85.24
2023-02-06T00:08:09.344Z,85.24
2023-02-06T00:09:09.271Z,85.34
2023-02-06T00:10:09.286Z,84.92
2023-02-06T00:11:09.235Z,84.82
2023-02-06T00:12:09.222Z,84.72
2023-02-06T00:13:09.238Z,84.82
2023-02-06T00:14:09.312Z,84.92
2023-02-06T00:15:09.215Z,84.82
2023-02-06T00:16:09.242Z,84.41
2023-02-06T00:17:09.220Z,84.75
2023-02-06T00:18:09.148Z,85.03
2023-02-06T00:19:09.145Z,85.03
2023-02-06T00:20:09.424Z,85.24
2023-02-06T00:21:09.153Z,84.72
2023-02-06T00:22:09.146Z,84.44
2023-02-06T00:23:09.219Z,84.44
2023-02-06T00:24:09.171Z,84.44
2023-02-06T00:25:09.114Z,84.65
2023-02-06T00:26:10.822Z,84.86
2023-02-06T00:27:09.015Z,84.86
2023-02-06T00:28:09.129Z,85.17
2023-02-06T00:29:23.832Z,85.27
2023-02-06T00:30:09.059Z,85.48
2023-02-06T00:31:09.120Z,85.48
2023-02-06T00:32:09.200Z,85.63
2023-02-06T00:33:09.082Z,85.83
2023-02-06T00:34:09.016Z,85.94
2023-02-06T00:35:08.934Z,86.04
2023-02-06T00:36:09.048Z,86.15
2023-02-06T00:37:08.907Z,86.04
2023-02-06T00:38:08.902Z,86.04
2023-02-06T00:39:09.110Z,86.15
2023-02-06T00:40:08.924Z,86.18
2023-02-06T00:41:08.862Z,86.39
2023-02-06T00:42:36.569Z,86.49
2023-02-06T00:43:08.826Z,86.70
2023-02-06T00:44:08.846Z,86.60
2023-02-06T00:45:09.003Z,86.70
2023-02-06T00:46:08.876Z,86.60
2023-02-06T00:47:08.825Z,86.70
2023-02-06T00:48:08.934Z,86.60
2023-02-06T00:49:08.747Z,86.70
2023-02-06T00:50:08.757Z,86.49
2023-02-06T00:51:09.566Z,86.49
2023-02-06T00:52:08.759Z,86.39
2023-02-06T00:53:08.689Z,86.49
2023-02-06T00:54:08.924Z,86.49
2023-02-06T00:55:08.791Z,86.66
2023-02-06T00:56:08.674Z,86.55
2023-02-06T00:57:08.871Z,86.55
2023-02-06T00:58:08.699Z,86.45
2023-02-06T00:59:08.637Z,86.35
2023-02-06T01:02:18.975Z,87.16
2023-02-06T01:03:18.999Z,87.01
2023-02-06T01:04:18.989Z,86.70
2023-02-06T01:05:19.141Z,86.39
2023-02-06T01:06:26.016Z,86.45
2023-02-06T01:07:18.911Z,86.04
2023-02-06T01:08:19.658Z,85.94
2023-02-06T01:09:18.945Z,85.83
2023-02-06T01:10:18.903Z,85.97
2023-02-06T01:11:18.905Z,85.87
2023-02-06T01:12:18.976Z,85.94
2023-02-06T01:13:18.834Z,85.94
2023-02-06T01:14:18.889Z,85.73
2023-02-06T01:15:19.059Z,85.38
2023-02-06T01:16:18.806Z,85.21
2023-02-06T01:17:18.791Z,85.42
2023-02-06T01:18:18.825Z,85.31
2023-02-06T01:19:18.810Z,85.31
2023-02-06T01:20:18.764Z,85.31
2023-02-06T01:21:18.739Z,85.42
2023-02-06T01:22:18.796Z,85.42
2023-02-06T01:23:18.729Z,85.42
2023-02-06T01:24:18.701Z,85.21
2023-02-06T01:25:18.788Z,85.00
2023-02-06T01:26:18.778Z,85.00
2023-02-06T01:27:18.656Z,84.90
2023-02-06T01:28:18.737Z,85.00
2023-02-06T01:29:18.679Z,85.00
2023-02-06T01:30:18.626Z,85.00
2023-02-06T01:31:18.734Z,84.90
2023-02-06T01:32:18.640Z,84.80
2023-02-06T01:33:18.573Z,85.00
2023-02-06T01:34:18.688Z,84.90
2023-02-06T01:35:18.603Z,84.80
2023-02-06T01:36:18.573Z,84.69
2023-02-06T01:37:18.577Z,84.90
2023-02-06T01:38:18.589Z,84.80
2023-02-06T01:39:18.577Z,84.90
2023-02-06T01:40:18.592Z,85.00
2023-02-06T01:41:18.536Z,85.00
2023-02-06T01:42:18.582Z,85.00
2023-02-06T01:43:23.003Z,85.11
2023-02-06T01:44:18.423Z,85.21
2023-02-06T01:45:18.450Z,85.35
2023-02-06T01:46:31.740Z,85.46
2023-02-06T01:47:19.446Z,85.56
2023-02-06T01:48:18.463Z,85.46
2023-02-06T01:49:18.625Z,85.56
2023-02-06T01:50:18.456Z,85.77
2023-02-06T01:51:18.459Z,85.87
2023-02-06T01:52:18.705Z,85.77
2023-02-06T01:53:18.469Z,85.77
2023-02-06T01:54:18.392Z,85.87
2023-02-06T01:55:18.520Z,85.66
2023-02-06T01:56:18.357Z,85.77
2023-02-06T01:57:18.321Z,85.66
2023-02-06T01:58:35.998Z,85.97
2023-02-06T01:59:19.306Z,85.87
2023-02-06T02:00:18.247Z,85.97
2023-02-06T02:01:25.313Z,85.73
2023-02-06T02:02:19.260Z,85.63
2023-02-06T02:03:18.197Z,85.35
2023-02-06T02:04:18.375Z,85.77
2023-02-06T02:05:18.241Z,85.87
2023-02-06T02:06:18.250Z,85.87
2023-02-06T02:07:18.434Z,85.77
2023-02-06T02:08:18.207Z,85.97
2023-02-06T02:09:18.162Z,86.18
2023-02-06T02:10:18.284Z,85.97
2023-02-06T02:11:18.165Z,85.77
2023-02-06T02:12:18.092Z,85.66
2023-02-06T02:13:49.315Z,85.77
2023-02-06T02:14:19.084Z,85.87
2023-02-06T02:15:18.063Z,85.77
2023-02-06T02:16:18.356Z,85.87
2023-02-06T02:17:18.031Z,85.87
2023-02-06T02:18:18.029Z,85.66
2023-02-06T02:19:18.010Z,85.77
2023-02-06T02:20:18.153Z,85.77
2023-02-06T02:21:17.975Z,85.87
2023-02-06T02:22:18.041Z,85.97
2023-02-06T02:23:18.257Z,86.08
2023-02-06T02:24:17.943Z,85.87
2023-02-06T02:25:17.953Z,85.97
2023-02-06T02:26:18.013Z,85.97
2023-02-06T02:27:17.970Z,86.04
2023-02-06T02:28:18.053Z,85.73
2023-02-06T02:29:17.925Z,85.56
2023-02-06T02:30:17.937Z,85.66
2023-02-06T02:31:17.974Z,85.97
2023-02-06T02:32:17.892Z,85.73
2023-02-06T02:33:17.995Z,85.31
2023-02-06T02:34:17.870Z,85.73
2023-02-06T02:35:17.836Z,85.58
2023-02-06T02:36:17.850Z,85.13
2023-02-06T02:37:17.764Z,84.72
2023-02-06T02:38:17.835Z,84.23
2023-02-06T02:39:17.749Z,84.34
2023-02-06T02:40:17.748Z,84.03
2023-02-06T02:41:17.835Z,84.03
2023-02-06T02:42:17.769Z,83.93
2023-02-06T02:43:17.950Z,83.93
2023-02-06T02:44:17.735Z,84.03
2023-02-06T02:45:17.748Z,83.93
2023-02-06T02:46:17.695Z,83.76
2023-02-06T02:47:17.812Z,83.97
2023-02-06T02:48:17.649Z,84.07
2023-02-06T02:49:17.689Z,84.17
2023-02-06T02:50:17.645Z,84.13
2023-02-06T02:51:17.647Z,84.23
2023-02-06T02:52:17.690Z,84.07
2023-02-06T02:53:17.726Z,84.28
2023-02-06T02:54:17.568Z,84.38
2023-02-06T02:55:17.614Z,84.17
2023-02-06T02:56:17.604Z,84.28
2023-02-06T02:57:17.504Z,84.17
2023-02-06T02:58:17.612Z,84.38
2023-02-06T02:59:50.481Z,84.13
2023-02-06T03:00:17.532Z,84.48
2023-02-06T03:01:17.542Z,84.28
2023-02-06T03:02:17.606Z,84.48
2023-02-06T03:03:17.888Z,84.28
2023-02-06T03:04:17.483Z,84.38
2023-02-06T03:05:17.460Z,84.34
2023-02-06T03:06:17.397Z,84.13
2023-02-06T03:07:17.397Z,83.99
2023-02-06T03:08:17.445Z,83.89
2023-02-06T03:09:17.428Z,83.78
2023-02-06T03:10:23.219Z,83.89
2023-02-06T03:11:17.346Z,83.64
2023-02-06T03:12:17.335Z,83.12
2023-02-06T03:13:17.509Z,83.02
2023-02-06T03:14:17.280Z,83.16
2023-02-06T03:15:17.294Z,83.16
2023-02-06T03:16:31.000Z,83.41
2023-02-06T03:17:18.298Z,83.62
2023-02-06T03:18:17.256Z,83.83
2023-02-06T03:19:17.226Z,83.37
2023-02-06T03:20:17.268Z,83.41
2023-02-06T03:21:17.380Z,83.31
2023-02-06T03:22:17.275Z,83.72
2023-02-06T03:23:17.576Z,83.72
2023-02-06T03:24:17.186Z,83.41
2023-02-06T03:25:17.133Z,83.51
2023-02-06T03:26:17.169Z,83.65
2023-02-06T03:27:17.357Z,83.97
2023-02-06T03:28:17.183Z,83.97
2023-02-06T03:29:17.226Z,83.97
2023-02-06T03:30:17.301Z,83.83
2023-02-06T03:31:17.135Z,83.93
2023-02-06T03:32:17.111Z,83.93
2023-02-06T03:33:17.126Z,83.93
2023-02-06T03:34:17.109Z,83.83
2023-02-06T03:35:17.107Z,83.83
2023-02-06T03:36:17.011Z,84.03
2023-02-06T03:37:17.037Z,84.13
2023-02-06T03:38:17.049Z,84.44
2023-02-06T03:39:17.059Z,84.34
2023-02-06T03:40:17.004Z,84.23
2023-02-06T03:41:17.058Z,84.55
2023-02-06T03:42:17.028Z,84.34
2023-02-06T03:43:17.029Z,84.55
2023-02-06T03:44:17.016Z,84.69
2023-02-06T03:45:16.926Z,84.80
2023-02-06T03:46:17.098Z,85.00
2023-02-06T03:47:17.014Z,84.86
2023-02-06T03:48:17.007Z,84.65
2023-02-06T03:49:16.950Z,84.65
2023-02-06T03:50:17.016Z,84.03
2023-02-06T03:51:16.895Z,84.28
2023-02-06T03:52:16.848Z,84.59
2023-02-06T03:53:16.829Z,84.86
2023-02-06T03:54:26.803Z,84.75
2023-02-06T03:55:16.755Z,84.86
2023-02-06T03:56:16.747Z,84.75
2023-02-06T03:57:16.759Z,84.59
2023-02-06T03:58:16.865Z,84.80
2023-02-06T03:59:16.766Z,85.21
2023-02-06T04:00:16.744Z,85.21
2023-02-06T04:01:16.917Z,85.42
2023-02-06T04:02:16.726Z,85.52
2023-02-06T04:03:16.668Z,85.66
2023-02-06T04:04:22.182Z,85.77
2023-02-06T04:05:17.701Z,86.08
2023-02-06T04:06:16.706Z,86.04
2023-02-06T04:07:16.759Z,86.04
2023-02-06T04:08:16.611Z,85.83
2023-02-06T04:09:16.650Z,85.66
2023-02-06T04:10:16.650Z,85.87
2023-02-06T04:11:20.681Z,85.87
2023-02-06T04:12:16.578Z,86.08
2023-02-06T04:13:16.545Z,85.97
2023-02-06T04:14:16.692Z,86.08
2023-02-06T04:15:16.568Z,86.29
2023-02-06T04:16:16.629Z,86.18
2023-02-06T04:17:31.324Z,86.29
2023-02-06T04:18:17.524Z,86.39
2023-02-06T04:19:16.506Z,86.49
2023-02-06T04:20:16.547Z,86.70
2023-02-06T04:21:16.480Z,86.60
2023-02-06T04:22:16.485Z,86.80
2023-02-06T04:23:16.506Z,87.07
2023-02-06T04:24:16.409Z,86.76
2023-02-06T04:25:16.396Z,86.87
2023-02-06T04:26:16.494Z,86.66
2023-02-06T04:27:16.551Z,86.39
2023-02-06T04:28:16.415Z,86.49
2023-02-06T04:29:16.374Z,86.60
2023-02-06T04:30:16.564Z,86.29
2023-02-06T04:31:16.560Z,86.08
2023-02-06T04:32:16.359Z,86.25
2023-02-06T04:33:16.296Z,85.83
2023-02-06T04:34:16.374Z,86.04
2023-02-06T04:35:16.385Z,86.29
2023-02-06T04:36:16.294Z,86.18
2023-02-06T04:37:16.359Z,86.08
2023-02-06T04:38:16.284Z,86.08
2023-02-06T04:39:16.246Z,86.08
2023-02-06T04:40:16.328Z,85.94
2023-02-06T04:41:16.202Z,85.83
2023-02-06T04:42:16.196Z,86.15
2023-02-06T04:43:16.210Z,85.73
2023-02-06T04:44:16.151Z,86.04
2023-02-06T04:45:16.126Z,86.04
2023-02-06T04:46:16.474Z,86.15
2023-02-06T04:47:16.138Z,85.77
2023-02-06T04:48:16.092Z,85.97
2023-02-06T04:49:16.297Z,86.29
2023-02-06T04:50:16.071Z,86.39
2023-02-06T04:51:16.052Z,86.29
2023-02-06T04:52:16.074Z,86.29
2023-02-06T04:53:16.248Z,86.49
2023-02-06T04:54:16.021Z,86.49
2023-02-06T04:55:15.975Z,86.39
2023-02-06T04:56:16.242Z,86.49
2023-02-06T04:57:15.984Z,86.70
2023-02-06T04:58:16.004Z,86.70
2023-02-06T04:59:16.207Z,86.60
2023-02-06T05:00:16.009Z,86.49
2023-02-06T05:01:16.024Z,86.70
2023-02-06T05:02:16.176Z,86.76
2023-02-06T05:03:15.967Z,86.39
2023-02-06T05:04:15.985Z,86.60
2023-02-06T05:05:16.185Z,86.60
2023-02-06T05:06:15.907Z,86.49
2023-02-06T05:07:15.836Z,86.49
2023-02-06T05:08:16.060Z,86.80
2023-02-06T05:09:15.958Z,86.60
2023-02-06T05:10:15.907Z,86.60
2023-02-06T05:11:15.811Z,86.49
2023-02-06T05:12:16.070Z,86.64
2023-02-06T05:13:15.815Z,86.85
2023-02-06T05:14:15.874Z,86.91
2023-02-06T05:15:20.659Z,86.91
2023-02-06T05:16:16.958Z,87.05
2023-02-06T05:17:15.780Z,86.95
2023-02-06T05:18:15.789Z,86.95
2023-02-06T05:19:15.801Z,87.01
2023-02-06T05:20:15.759Z,86.91
2023-02-06T05:21:15.670Z,86.95
2023-02-06T05:22:15.745Z,87.05
2023-02-06T05:23:15.734Z,86.95
2023-02-06T05:24:15.737Z,87.16
2023-02-06T05:25:15.719Z,87.22
2023-02-06T05:26:15.870Z,87.12
2023-02-06T05:27:15.602Z,87.01
2023-02-06T05:28:15.743Z,87.12
2023-02-06T05:29:41.986Z,87.22
2023-02-06T05:30:15.565Z,87.26
2023-02-06T05:31:15.847Z,87.16
2023-02-06T05:32:15.686Z,87.16
2023-02-06T05:33:15.577Z,87.16
2023-02-06T05:34:15.804Z,87.01
2023-02-06T05:35:15.568Z,87.12
2023-02-06T05:36:15.564Z,87.01
2023-02-06T05:37:15.736Z,86.91
2023-02-06T05:38:15.615Z,87.01
2023-02-06T05:39:15.612Z,86.91
2023-02-06T05:40:48.831Z,86.70
2023-02-06T05:41:16.454Z,86.70
2023-02-06T05:42:15.528Z,86.66
2023-02-06T05:43:15.628Z,86.35
2023-02-06T05:44:15.460Z,86.21
2023-02-06T05:45:15.415Z,85.79
2023-02-06T05:46:15.716Z,85.69
2023-02-06T05:47:15.444Z,85.48
2023-02-06T05:48:15.372Z,85.31
2023-02-06T05:49:15.427Z,85.52
2023-02-06T05:50:15.571Z,85.63
2023-02-06T05:51:15.347Z,85.52
2023-02-06T05:52:15.365Z,85.42
2023-02-06T05:53:15.540Z,85.42
2023-02-06T05:54:15.433Z,85.52
2023-02-06T05:55:15.271Z,85.35
2023-02-06T05:56:15.303Z,85.56
2023-02-06T05:57:15.839Z,85.77
2023-02-06T05:58:15.321Z,85.94
2023-02-06T05:59:15.199Z,85.73
2023-02-06T06:00:15.179Z,85.66
2023-02-06T06:01:15.320Z,85.83
2023-02-06T06:02:15.228Z,85.73
2023-02-06T06:03:15.228Z,85.42
2023-02-06T06:04:15.260Z,85.31
2023-02-06T06:05:15.127Z,85.35
2023-02-06T06:06:15.161Z,85.46
2023-02-06T06:07:15.273Z,85.63
2023-02-06T06:08:15.378Z,85.52
2023-02-06T06:09:15.123Z,85.63
2023-02-06T06:10:15.054Z,85.52
2023-02-06T06:11:15.156Z,85.42
2023-02-06T06:12:16.142Z,85.63
2023-02-06T06:13:15.055Z,85.42
2023-02-06T06:14:15.059Z,85.21
2023-02-06T06:15:15.137Z,85.42
2023-02-06T06:16:15.118Z,85.52
2023-02-06T06:17:15.079Z,85.52
2023-02-06T06:18:15.267Z,85.38
2023-02-06T06:19:15.122Z,85.31
2023-02-06T06:20:15.047Z,85.11
2023-02-06T06:21:15.031Z,85.11
2023-02-06T06:22:14.984Z,85.00
2023-02-06T06:23:15.032Z,85.11
2023-02-06T06:24:14.936Z,85.11
2023-02-06T06:25:15.105Z,85.21
2023-02-06T06:26:15.183Z,85.00
2023-02-06T06:27:14.978Z,85.00
2023-02-06T06:28:15.077Z,85.11
2023-02-06T06:29:14.957Z,85.21
2023-02-06T06:30:14.933Z,85.11
2023-02-06T06:31:15.050Z,85.21
2023-02-06T06:32:15.137Z,84.90
2023-02-06T06:33:14.871Z,85.11
2023-02-06T06:34:14.864Z,85.21
2023-02-06T06:35:14.998Z,85.00
2023-02-06T06:36:15.001Z,85.00
2023-02-06T06:37:14.739Z,84.90
2023-02-06T06:38:14.857Z,85.00
2023-02-06T06:39:14.818Z,85.00
2023-02-06T06:40:14.719Z,85.38
2023-02-06T06:41:14.755Z,85.21
2023-02-06T06:42:14.800Z,84.90
2023-02-06T06:43:14.751Z,84.55
2023-02-06T06:44:14.773Z,84.65
2023-02-06T06:45:14.762Z,84.59
2023-02-06T06:46:14.646Z,84.59
2023-02-06T06:47:14.728Z,84.59
2023-02-06T06:48:14.741Z,84.69
2023-02-06T06:49:14.686Z,84.69
2023-02-06T06:50:14.721Z,84.90
2023-02-06T06:51:14.642Z,84.90
2023-02-06T06:52:24.478Z,84.69
2023-02-06T06:53:15.610Z,84.59
2023-02-06T06:54:14.624Z,84.55
2023-02-06T06:55:14.544Z,84.55
2023-02-06T06:56:14.573Z,84.30
2023-02-06T06:57:14.603Z,83.83
2023-02-06T06:58:14.616Z,83.62
2023-02-06T06:59:14.541Z,83.83
2023-02-06T07:00:14.621Z,83.83
2023-02-06T07:01:14.516Z,84.03
2023-02-06T07:02:14.714Z,83.93
2023-02-06T07:03:14.714Z,83.83
2023-02-06T07:04:14.522Z,84.03
2023-02-06T07:05:14.515Z,84.28
2023-02-06T07:06:14.518Z,84.28
2023-02-06T07:07:14.466Z,84.80
2023-02-06T07:08:14.439Z,84.75
2023-02-06T07:09:14.502Z,84.34
2023-02-06T07:10:14.368Z,84.44
2023-02-06T07:11:14.363Z,84.34
2023-02-06T07:12:14.307Z,84.28
2023-02-06T07:13:14.465Z,84.38
2023-02-06T07:14:14.409Z,84.48
2023-02-06T07:15:14.296Z,84.59
2023-02-06T07:16:14.339Z,84.52
2023-02-06T07:17:14.277Z,84.69
2023-02-06T07:18:14.212Z,84.69
2023-02-06T07:19:14.252Z,84.80
2023-02-06T07:20:14.390Z,84.80
2023-02-06T07:21:14.273Z,84.59
2023-02-06T07:22:14.259Z,84.48
2023-02-06T07:23:14.241Z,84.28
2023-02-06T07:24:14.181Z,84.44
2023-02-06T07:25:14.177Z,84.03
2023-02-06T07:26:14.259Z,83.93
2023-02-06T07:27:14.200Z,83.65
2023-02-06T07:28:14.199Z,83.72
2023-02-06T07:29:14.203Z,83.83
2023-02-06T07:30:14.134Z,83.83
2023-02-06T07:31:14.089Z,83.51
2023-02-06T07:32:14.177Z,83.51
2023-02-06T07:33:14.168Z,83.65
2023-02-06T07:34:14.110Z,83.93
2023-02-06T07:35:14.081Z,83.62
2023-02-06T07:36:14.065Z,83.31
2023-02-06T07:37:13.990Z,83.34
2023-02-06T07:38:14.039Z,83.76
2023-02-06T07:39:14.207Z,83.76
2023-02-06T07:40:14.002Z,83.55
2023-02-06T07:41:13.998Z,83.86
2023-02-06T07:42:13.956Z,84.17
2023-02-06T07:43:14.058Z,84.07
2023-02-06T07:44:13.958Z,84.07
2023-02-06T07:45:15.203Z,84.17
2023-02-06T07:46:14.026Z,84.17
2023-02-06T07:47:13.886Z,84.17
2023-02-06T07:48:13.920Z,84.34
2023-02-06T07:49:13.920Z,83.62
2023-02-06T07:50:13.948Z,83.41
2023-02-06T07:51:13.955Z,83.31
2023-02-06T07:52:13.779Z,83.41
2023-02-06T07:53:13.875Z,83.16
2023-02-06T07:54:13.900Z,83.00
2023-02-06T07:55:13.795Z,82.89
2023-02-06T07:56:13.863Z,82.89
2023-02-06T07:57:13.874Z,83.24
2023-02-06T07:58:13.693Z,83.45
2023-02-06T07:59:13.843Z,83.76
2023-02-06T08:00:13.693Z,83.86
2023-02-06T08:01:13.708Z,84.07
2023-02-06T08:02:13.767Z,84.07
2023-02-06T08:03:13.711Z,84.07
2023-02-06T08:04:13.670Z,83.97
2023-02-06T08:05:13.548Z,84.03
2023-02-06T08:06:13.663Z,83.83
2023-02-06T08:07:13.562Z,83.51
2023-02-06T08:08:13.557Z,83.51
2023-02-06T08:09:13.676Z,83.24
2023-02-06T08:10:13.556Z,83.65
2023-02-06T08:11:13.569Z,83.45
2023-02-06T08:12:13.555Z,83.55
2023-02-06T08:13:13.622Z,83.86
2023-02-06T08:14:13.495Z,83.51
2023-02-06T08:15:13.599Z,83.55
2023-02-06T08:16:13.539Z,83.62
2023-02-06T08:17:13.496Z,83.41
2023-02-06T08:18:13.408Z,83.20
2023-02-06T08:19:13.468Z,83.00
2023-02-06T08:20:13.460Z,82.72
2023-02-06T08:21:13.428Z,82.62
2023-02-06T08:22:13.447Z,82.72
2023-02-06T08:23:13.455Z,82.51
2023-02-06T08:24:13.355Z,82.58
2023-02-06T08:25:13.364Z,82.37
2023-02-06T08:26:13.340Z,82.17
2023-02-06T08:27:13.568Z,82.17
2023-02-06T08:28:13.422Z,82.34
2023-02-06T08:29:13.362Z,82.13
2023-02-06T08:30:13.314Z,82.03
2023-02-06T08:31:13.565Z,81.61
2023-02-06T08:32:13.291Z,81.71
2023-02-06T08:33:13.427Z,81.51
2023-02-06T08:34:13.280Z,81.51
2023-02-06T08:35:13.198Z,81.51
2023-02-06T08:36:13.171Z,81.61
2023-02-06T08:37:13.476Z,81.30
2023-02-06T08:38:13.192Z,81.20
2023-02-06T08:39:13.231Z,81.51
2023-02-06T08:40:13.164Z,81.82
2023-02-06T08:41:13.165Z,81.71
2023-02-06T08:42:13.120Z,81.30
2023-02-06T08:43:13.138Z,81.16
2023-02-06T08:44:13.154Z,81.20
2023-02-06T08:45:13.160Z,81.51
2023-02-06T08:46:13.142Z,81.51
2023-02-06T08:47:13.126Z,81.37
2023-02-06T08:48:13.054Z,81.16
2023-02-06T08:49:13.198Z,81.02
2023-02-06T08:50:13.105Z,80.74
2023-02-06T08:51:13.105Z,80.64
2023-02-06T08:52:12.989Z,80.54
2023-02-06T08:53:13.075Z,80.81
2023-02-06T08:54:13.005Z,80.60
2023-02-06T08:55:13.021Z,80.29
2023-02-06T08:56:12.969Z,80.02
2023-02-06T08:57:12.957Z,80.43
2023-02-06T08:58:12.925Z,80.64
2023-02-06T08:59:12.972Z,80.60
2023-02-06T09:00:12.833Z,80.50
2023-02-06T09:01:12.867Z,80.54
2023-02-06T09:02:12.915Z,80.74
2023-02-06T09:03:12.792Z,80.81
2023-02-06T09:04:12.776Z,80.19
2023-02-06T09:05:12.910Z,79.88
2023-02-06T09:06:12.931Z,79.57
2023-02-06T09:07:12.787Z,79.63
2023-02-06T09:08:12.889Z,79.43
2023-02-06T09:09:12.811Z,78.88
2023-02-06T09:10:26.733Z,78.91
2023-02-06T09:11:13.950Z,78.91
2023-02-06T09:12:12.777Z,78.91
2023-02-06T09:13:12.780Z,79.47
2023-02-06T09:14:12.769Z,79.74
2023-02-06T09:15:12.716Z,79.74
2023-02-06T09:16:12.876Z,79.19
2023-02-06T09:17:12.751Z,78.77
2023-02-06T09:18:12.635Z,78.25
2023-02-06T09:19:12.663Z,78.36
2023-02-06T09:20:12.580Z,78.22
2023-02-06T09:21:12.647Z,77.77
2023-02-06T09:22:12.587Z,77.25
2023-02-06T09:23:12.617Z,76.73
2023-02-06T09:24:12.556Z,77.01
2023-02-06T09:25:12.554Z,77.98
2023-02-06T09:26:12.544Z,78.77
2023-02-06T09:27:12.556Z,78.88
2023-02-06T09:28:12.535Z,78.56
2023-02-06T09:29:12.537Z,77.84
2023-02-06T09:30:12.537Z,77.94
2023-02-06T09:31:12.522Z,77.84
2023-02-06T09:32:12.390Z,77.70
2023-02-06T09:33:12.484Z,76.87
2023-02-06T09:34:12.395Z,76.91
2023-02-06T09:35:12.466Z,77.01
2023-02-06T09:36:12.413Z,77.64
2023-02-06T09:37:12.368Z,77.64
2023-02-06T09:38:12.307Z,77.26
2023-02-06T09:39:12.302Z,77.26
2023-02-06T09:40:12.361Z,77.47
2023-02-06T09:41:12.310Z,77.56
2023-02-06T09:42:12.341Z,77.87
2023-02-06T09:43:12.324Z,76.98
2023-02-06T09:44:12.243Z,77.39
2023-02-06T09:45:12.262Z,78.19
2023-02-06T09:46:12.275Z,77.67
2023-02-06T09:47:12.270Z,76.91
2023-02-06T09:48:12.183Z,76.50
2023-02-06T09:49:12.199Z,75.78
2023-02-06T09:50:12.194Z,75.57
2023-02-06T09:51:12.190Z,75.26
2023-02-06T09:52:12.156Z,75.12
2023-02-06T09:53:12.192Z,75.39
2023-02-06T09:54:12.107Z,75.15
2023-02-06T09:55:12.136Z,74.91
2023-02-06T09:56:12.118Z,73.19
2023-02-06T09:57:12.151Z,73.54
2023-02-06T09:58:12.082Z,74.15
2023-02-06T09:59:12.320Z,74.15
2023-02-06T10:00:12.063Z,72.81
2023-02-06T10:01:12.090Z,71.06
2023-02-06T10:02:12.043Z,70.85
2023-02-06T10:03:11.960Z,70.85
2023-02-06T10:04:12.011Z,70.82
2023-02-06T10:05:11.993Z,69.27
2023-02-06T10:06:11.960Z,69.30
2023-02-06T10:07:12.041Z,70.03
2023-02-06T10:08:11.915Z,68.61
2023-02-06T10:09:11.934Z,68.68
2023-02-06T10:10:11.911Z,66.72
2023-02-06T10:11:11.976Z,66.10
2023-02-06T10:12:11.880Z,66.82
2023-02-06T10:13:11.917Z,65.45
2023-02-06T10:14:11.860Z,64.70
2023-02-06T10:15:11.828Z,63.15
2023-02-06T10:16:11.961Z,63.04
2023-02-06T10:17:11.942Z,63.97
2023-02-06T10:18:11.851Z,64.70
2023-02-06T10:19:11.788Z,64.52
2023-02-06T10:20:11.770Z,63.90
2023-02-06T10:21:11.725Z,63.93
2023-02-06T10:22:11.733Z,64.86
2023-02-06T10:23:18.970Z,65.89
2023-02-06T10:24:11.726Z,66.07
2023-02-06T10:25:11.728Z,64.83
2023-02-06T10:26:11.751Z,64.31
2023-02-06T10:27:11.687Z,64.76
2023-02-06T10:28:11.651Z,64.48
2023-02-06T10:29:11.739Z,64.99
2023-02-06T10:30:11.671Z,64.78
2023-02-06T10:31:11.743Z,64.78
2023-02-06T10:32:11.663Z,64.37
2023-02-06T10:33:20.317Z,64.78
2023-02-06T10:34:12.679Z,65.61
2023-02-06T10:35:11.640Z,65.58
2023-02-06T10:36:11.589Z,65.20
2023-02-06T10:37:11.597Z,65.20
2023-02-06T10:38:11.657Z,65.09
2023-02-06T10:39:11.591Z,65.41
2023-02-06T10:40:11.577Z,65.09
2023-02-06T10:41:11.541Z,64.89
2023-02-06T10:42:11.559Z,65.61
2023-02-06T10:43:11.626Z,66.33
2023-02-06T10:44:11.617Z,65.51
2023-02-06T10:45:20.990Z,64.78
2023-02-06T10:46:12.518Z,64.99
2023-02-06T10:47:11.507Z,65.20
2023-02-06T10:48:11.475Z,65.20
2023-02-06T10:49:11.435Z,64.86
2023-02-06T10:50:11.540Z,64.96
2023-02-06T10:51:11.421Z,65.61
2023-02-06T10:52:11.433Z,66.03
2023-02-06T10:53:11.445Z,65.69
2023-02-06T10:54:11.346Z,65.37
2023-02-06T10:55:11.306Z,65.41
2023-02-06T10:56:11.347Z,65.54
2023-02-06T10:57:11.307Z,66.06
2023-02-06T10:58:11.313Z,66.33
2023-02-06T10:59:11.376Z,66.23
2023-02-06T11:00:11.271Z,66.16
2023-02-06T11:01:25.060Z,66.54
2023-02-06T11:02:12.363Z,66.30
2023-02-06T11:03:11.196Z,65.69
2023-02-06T11:04:11.257Z,65.37
2023-02-06T11:05:11.203Z,65.58
2023-02-06T11:06:11.216Z,65.14
2023-02-06T11:07:11.176Z,64.93
2023-02-06T11:08:11.186Z,64.24
2023-02-06T11:09:11.244Z,64.68
2023-02-06T11:10:11.099Z,64.96
2023-02-06T11:11:11.119Z,65.37
2023-02-06T11:12:11.232Z,64.99
2023-02-06T11:13:11.068Z,65.41
2023-02-06T11:14:11.108Z,65.51
2023-02-06T11:15:11.058Z,65.33
2023-02-06T11:16:11.102Z,65.61
2023-02-06T11:17:11.109Z,65.41
2023-02-06T11:18:11.087Z,65.48
2023-02-06T11:19:10.980Z,65.82
2023-02-06T11:20:10.992Z,66.33
2023-02-06T11:21:10.946Z,65.89
2023-02-06T11:22:10.945Z,65.69
2023-02-06T11:23:10.976Z,65.89
2023-02-06T11:24:10.906Z,64.83
2023-02-06T11:25:11.392Z,64.93
2023-02-06T11:26:10.925Z,64.76
2023-02-06T11:27:10.886Z,65.27
2023-02-06T11:28:10.946Z,64.76
2023-02-06T11:29:10.861Z,64.55
2023-02-06T11:30:10.878Z,64.55
2023-02-06T11:31:10.944Z,64.96
2023-02-06T11:32:10.784Z,65.69
2023-02-06T11:33:10.788Z,64.83
2023-02-06T11:34:10.780Z,64.21
2023-02-06T11:35:10.786Z,64.14
2023-02-06T11:36:10.890Z,64.48
2023-02-06T11:37:10.769Z,65.20
2023-02-06T11:38:10.797Z,65.20
2023-02-06T11:39:10.740Z,65.41
2023-02-06T11:40:10.685Z,65.33
2023-02-06T11:41:10.719Z,64.81
2023-02-06T11:42:10.700Z,65.23
2023-02-06T11:43:10.629Z,65.54
2023-02-06T11:44:10.676Z,65.95
2023-02-06T11:45:10.684Z,65.85
2023-02-06T11:46:10.683Z,65.12
2023-02-06T11:47:10.594Z,65.44
2023-02-06T11:48:10.614Z,65.44
2023-02-06T11:49:10.583Z,65.64
2023-02-06T11:50:10.583Z,65.95
2023-02-06T11:51:10.587Z,66.26
2023-02-06T11:52:10.555Z,65.85
2023-02-06T11:53:10.514Z,66.26
2023-02-06T11:54:10.595Z,66.26
2023-02-06T11:55:10.609Z,66.26
2023-02-06T11:56:10.896Z,66.57
2023-02-06T11:57:10.459Z,66.57
2023-02-06T11:58:10.571Z,66.36
2023-02-06T11:59:10.432Z,66.67
2023-02-06T12:00:10.452Z,66.88
2023-02-06T12:01:10.471Z,67.06
2023-02-06T12:02:10.484Z,66.78
2023-02-06T12:03:10.401Z,67.09
2023-02-06T12:04:10.380Z,67.09
2023-02-06T12:05:10.362Z,67.47
2023-02-06T12:06:10.348Z,67.30
2023-02-06T12:07:10.376Z,67.27
2023-02-06T12:08:10.388Z,66.96
2023-02-06T12:09:10.320Z,66.54
2023-02-06T12:10:10.268Z,66.96
2023-02-06T12:11:12.331Z,67.34
2023-02-06T12:12:10.256Z,66.93
2023-02-06T12:13:10.243Z,66.51
2023-02-06T12:14:10.243Z,66.30
2023-02-06T12:15:33.129Z,66.96
2023-02-06T12:16:11.218Z,67.03
2023-02-06T12:17:10.243Z,67.13
2023-02-06T12:18:10.200Z,67.34
2023-02-06T12:19:10.184Z,67.06
2023-02-06T12:20:10.183Z,67.37
2023-02-06T12:21:10.123Z,67.88
2023-02-06T12:22:10.218Z,67.54
2023-02-06T12:23:10.219Z,67.00
2023-02-06T12:24:10.093Z,66.55
2023-02-06T12:25:10.111Z,66.35
2023-02-06T12:26:10.212Z,66.42
2023-02-06T12:27:10.102Z,66.21
2023-02-06T12:28:10.171Z,65.70
2023-02-06T12:29:10.098Z,65.73
2023-02-06T12:30:10.031Z,66.14
2023-02-06T12:31:10.063Z,66.89
2023-02-06T12:32:10.069Z,67.30
2023-02-06T12:33:09.971Z,67.72
2023-02-06T12:34:09.979Z,67.69
2023-02-06T12:35:10.962Z,67.79
2023-02-06T12:36:09.960Z,67.55
2023-02-06T12:37:09.921Z,67.97
2023-02-06T12:38:09.947Z,68.27
2023-02-06T12:39:09.950Z,66.94
2023-02-06T12:40:09.961Z,66.42
2023-02-06T12:41:09.955Z,66.66
2023-02-06T12:42:09.909Z,66.73
2023-02-06T12:43:09.894Z,66.42
2023-02-06T12:44:09.962Z,66.73
2023-02-06T12:45:09.856Z,66.83
2023-02-06T12:46:10.389Z,67.14
2023-02-06T12:47:09.794Z,67.24
2023-02-06T12:48:12.135Z,66.94
2023-02-06T12:49:09.767Z,66.70
2023-02-06T12:50:09.905Z,66.60
2023-02-06T12:51:09.820Z,65.25
2023-02-06T12:52:09.800Z,64.18
2023-02-06T12:53:09.788Z,65.45
2023-02-06T12:54:09.711Z,65.97